VTSS/HDY METAR and TAF weather

Enter ICAO airport designator
Station Type Date Time Source
VTSS METAR 2021/04/14 19:00 UTC NOAA

VTSS 141900Z 12003KT 9999 FEW020 25/25 Q1010 NOSIG


Station Type Date Time Source
VTSS Decoded METAR 2021/04/14 19:00 UTC NOAA

Hat Yai, Thailand (VTSS) 06-55N 100-26E 35M
Apr 14, 2021 - 03:00 PM EDT / 2021.04.14 1900 UTC
Wind: from the ESE (120 degrees) at 3 MPH (3 KT):0
Visibility: greater than 7 mile(s):0
Sky conditions: mostly clear
Temperature: 77 F (25 C)
Dew Point: 77 F (25 C)
Relative Humidity: 100%
Pressure (altimeter): 29.83 in. Hg (1010 hPa)
ob: VTSS 141900Z 12003KT 9999 FEW020 25/25 Q1010 NOSIG
cycle: 19

Station Type Date Time Source
VTSS TAF 2021/04/14 18:36 UTC NOAA

TAF VTSS 141700Z 1418/1518 24003KT 9999 FEW020 SCT100
TEMPO 1507/1513 VRB10G20KT 3000 TSRA FEW016CB SCT018 BKN100

Example: see airport list